Time;durP1;ratioP1;P1;durP2;ratioP2;P2;SDS_P1;SDS_P2;PMS_P1;PMS_P2;Temp;Humidity;BMP_temperature;BMP_pressure;BME280_temperature;BME280_humidity;BME280_pressure;Samples;Min_cycle;Max_cycle;Signal;HPM_P1;HPM_P2
2024/02/13 00:00:58;;;;;;;;;;;;;;;4.58;100.00;96348.75;5105029;28;19968;-70
2024/02/13 00:03:24;;;;;;;;;;;;;;;4.56;100.00;96355.94;5106305;28;19985;-69
2024/02/13 00:05:53;;;;;;;;;;;;;;;4.55;100.00;96364.69;5105848;28;20124;-69
2024/02/13 00:08:19;;;;;;;;;;;;;;;4.56;100.00;96363.72;5105871;28;19960;-69
2024/02/13 00:10:45;;;;;;;;;;;;;;;4.55;100.00;96375.09;5105253;28;20268;-69
2024/02/13 00:13:11;;;;;;;;;;;;;;;4.56;100.00;96377.50;5105584;28;19965;-69
2024/02/13 00:15:37;;;;;;;;;;;;;;;4.56;100.00;96372.31;5105860;28;20201;-68
2024/02/13 00:18:05;;;;;;;;;;;;;;;4.58;100.00;96377.34;5087290;28;19950;-78
2024/02/13 00:20:32;;;;;;;;;;;;;;;4.60;100.00;96386.53;5105111;28;20246;-76
2024/02/13 00:22:59;;;;;;;;;;;;;;;4.61;100.00;96380.34;5105176;28;19940;-68
2024/02/13 00:25:26;;;;;;;;;;;;;;;4.61;100.00;96385.53;5105032;28;19948;-67
2024/02/13 00:27:52;;;;;;;;;;;;;;;4.62;100.00;96387.16;5104997;28;20235;-67
2024/02/13 00:30:19;;;;;;;;;;;;;;;4.62;100.00;96389.78;5104938;28;19936;-67
2024/02/13 00:33:05;;;;;;;;;;;;;;;4.63;100.00;96401.75;5104678;28;20224;-66
2024/02/13 00:35:53;;;;;;;;;;;;;;;4.64;100.00;96398.19;5105571;28;19944;-73
2024/02/13 00:38:19;;;;;;;;;;;;;;;4.66;100.00;96404.00;5105629;28;20229;-74
2024/02/13 00:40:45;;;;;;;;;;;;;;;4.65;100.00;96402.38;5104716;28;20021;-67
2024/02/13 00:43:17;;;;;;;;;;;;;;;4.61;100.00;96410.72;5104694;28;19942;-67
2024/02/13 00:45:43;;;;;;;;;;;;;;;4.61;100.00;96416.72;5104739;28;19941;-67
2024/02/13 00:48:11;;;;;;;;;;;;;;;4.62;100.00;96427.91;5105426;28;20099;-67
2024/02/13 00:50:38;;;;;;;;;;;;;;;4.62;100.00;96427.91;5105410;28;19941;-67
2024/02/13 00:53:05;;;;;;;;;;;;;;;4.63;100.00;96437.31;5105390;28;19930;-66
2024/02/13 00:55:31;;;;;;;;;;;;;;;4.64;100.00;96444.94;5104573;28;19944;-68
2024/02/13 00:57:57;;;;;;;;;;;;;;;4.66;100.00;96450.75;5104367;28;19964;-68
2024/02/13 01:00:24;;;;;;;;;;;;;;;4.65;100.00;96445.75;5104367;28;20255;-68
2024/02/13 01:02:53;;;;;;;;;;;;;;;4.66;100.00;96455.94;5104439;28;19939;-69
2024/02/13 01:05:19;;;;;;;;;;;;;;;4.69;100.00;96462.56;5103628;28;19937;-68
2024/02/13 01:07:45;;;;;;;;;;;;;;;4.70;100.00;96471.16;5104355;28;19926;-68
2024/02/13 01:10:11;;;;;;;;;;;;;;;4.70;100.00;96468.56;5104301;28;19935;-69
2024/02/13 01:12:39;;;;;;;;;;;;;;;4.68;100.00;96469.56;5105170;28;19938;-68
2024/02/13 01:15:05;;;;;;;;;;;;;;;4.68;100.00;96469.56;5104333;28;19938;-75
2024/02/13 01:17:32;;;;;;;;;;;;;;;4.66;100.00;96465.50;5104323;28;19945;-69
2024/02/13 01:19:58;;;;;;;;;;;;;;;4.65;100.00;96461.31;5104079;28;19956;-69
2024/02/13 01:22:24;;;;;;;;;;;;;;;4.60;100.00;96468.84;5103588;28;19934;-69
2024/02/13 01:24:50;;;;;;;;;;;;;;;4.57;100.00;96475.19;5104221;28;19958;-69
2024/02/13 01:27:18;;;;;;;;;;;;;;;4.54;100.00;96472.97;5104157;28;20125;-69
2024/02/13 01:29:44;;;;;;;;;;;;;;;4.53;100.00;96478.34;5104874;28;19930;-69
2024/02/13 01:32:10;;;;;;;;;;;;;;;4.49;100.00;96480.47;5104664;28;20266;-68
2024/02/13 01:34:36;;;;;;;;;;;;;;;4.45;100.00;96487.84;5104130;28;19941;-71
2024/02/13 01:37:03;;;;;;;;;;;;;;;4.41;100.00;96486.56;5104111;28;19943;-71
2024/02/13 01:39:29;;;;;;;;;;;;;;;4.38;100.00;96489.50;5103969;28;19956;-71
2024/02/13 01:41:57;;;;;;;;;;;;;;;4.35;100.00;96489.88;5104510;28;19938;-70
2024/02/13 01:44:24;;;;;;;;;;;;;;;4.31;100.00;96493.00;5104010;28;20105;-71
2024/02/13 01:46:52;;;;;;;;;;;;;;;4.27;100.00;96505.53;5103952;28;19941;-72
2024/02/13 01:49:19;;;;;;;;;;;;;;;4.23;100.00;96499.88;5103951;28;19938;-71
2024/02/13 01:51:45;;;;;;;;;;;;;;;4.21;100.00;96498.44;5103947;28;19940;-69
2024/02/13 01:54:12;;;;;;;;;;;;;;;4.18;100.00;96501.38;5104727;28;20118;-67
2024/02/13 01:56:39;;;;;;;;;;;;;;;4.16;100.00;96508.53;5103740;28;19972;-67
2024/02/13 01:59:05;;;;;;;;;;;;;;;4.13;100.00;96520.06;5104035;28;19942;-67
2024/02/13 02:01:32;;;;;;;;;;;;;;;4.11;100.00;96518.66;5103829;28;20107;-67
2024/02/13 02:04:03;;;;;;;;;;;;;;;4.06;100.00;96519.97;5103710;28;20249;-67
2024/02/13 02:06:29;;;;;;;;;;;;;;;4.04;100.00;96508.97;5104280;28;19950;-67
2024/02/13 02:08:56;;;;;;;;;;;;;;;4.02;100.00;96516.13;5103776;28;19954;-67
2024/02/13 02:11:23;;;;;;;;;;;;;;;4.01;100.00;96524.91;5103836;28;20099;-73
2024/02/13 02:13:49;;;;;;;;;;;;;;;3.99;100.00;96518.25;5104025;28;19944;-72
2024/02/13 02:16:32;;;;;;;;;;;;;;;3.95;100.00;96516.97;5102955;28;20252;-73
2024/02/13 02:18:58;;;;;;;;;;;;;;;3.91;100.00;96521.72;5103718;28;19937;-74
2024/02/13 02:21:23;;;;;;;;;;;;;;;3.88;100.00;96529.84;5104380;28;20165;-73
2024/02/13 02:23:49;;;;;;;;;;;;;;;3.86;100.00;96531.81;5103664;28;19938;-73
2024/02/13 02:26:17;;;;;;;;;;;;;;;3.85;100.00;96533.59;5103602;28;19932;-69
2024/02/13 02:29:00;;;;;;;;;;;;;;;3.84;100.00;96529.41;5104475;28;19941;-75
2024/02/13 02:31:26;;;;;;;;;;;;;;;3.83;100.00;96532.97;5104395;28;20103;-72
2024/02/13 02:33:55;;;;;;;;;;;;;;;3.83;100.00;96532.16;5104916;28;20004;-72
2024/02/13 02:36:22;;;;;;;;;;;;;;;3.81;100.00;96516.75;5107167;28;19936;-73
2024/02/13 02:38:48;;;;;;;;;;;;;;;3.76;100.00;96524.28;5107117;28;19936;-72
2024/02/13 02:41:14;;;;;;;;;;;;;;;3.73;100.00;96526.41;5106949;28;19950;-73
2024/02/13 02:43:41;;;;;;;;;;;;;;;3.69;100.00;96528.50;5107062;28;20113;-73
2024/02/13 02:46:07;;;;;;;;;;;;;;;3.65;100.00;96535.03;5106993;28;19941;-69
2024/02/13 02:48:33;;;;;;;;;;;;;;;3.63;100.00;96544.75;5106934;28;20001;-75
2024/02/13 02:50:59;;;;;;;;;;;;;;;3.58;100.00;96547.06;5106821;28;19946;-74
2024/02/13 02:53:24;;;;;;;;;;;;;;;3.55;100.00;96547.41;5106786;28;19967;-74
2024/02/13 02:55:52;;;;;;;;;;;;;;;3.51;100.00;96546.13;5106800;28;19981;-77
2024/02/13 02:58:18;;;;;;;;;;;;;;;3.48;100.00;96551.66;5106577;28;20026;-76
2024/02/13 03:00:43;;;;;;;;;;;;;;;3.45;100.00;96547.63;5106170;28;19982;-76
2024/02/13 03:03:10;;;;;;;;;;;;;;;3.40;100.00;96548.16;5106657;28;20250;-77
2024/02/13 03:05:36;;;;;;;;;;;;;;;3.38;100.00;96554.47;5106559;28;19935;-74
2024/02/13 03:08:02;;;;;;;;;;;;;;;3.33;100.00;96564.53;5106509;28;20021;-74
2024/02/13 03:10:28;;;;;;;;;;;;;;;3.30;100.00;96567.44;5106501;28;19974;-72
2024/02/13 03:12:55;;;;;;;;;;;;;;;3.28;100.00;96570.22;5105701;28;20284;-73
2024/02/13 03:15:22;;;;;;;;;;;;;;;3.26;100.00;96569.59;5106598;28;20254;-74
2024/02/13 03:17:48;;;;;;;;;;;;;;;3.24;100.00;96577.53;5106347;28;19937;-74
2024/02/13 03:20:14;;;;;;;;;;;;;;;3.22;100.00;96576.09;5106980;28;20127;-74
2024/02/13 03:22:52;;;;;;;;;;;;;;;3.19;100.00;96572.06;5106879;28;19937;-67
2024/02/13 03:25:18;;;;;;;;;;;;;;;3.17;100.00;96573.19;5106794;28;19945;-67
2024/02/13 03:28:04;;;;;;;;;;;;;;;3.15;100.00;96575.97;5107058;28;19935;-67
2024/02/13 03:30:31;;;;;;;;;;;;;;;3.14;100.00;96582.09;5106062;28;20266;-67
2024/02/13 03:32:57;;;;;;;;;;;;;;;3.14;100.00;96576.13;5106094;28;20125;-67
2024/02/13 03:35:24;;;;;;;;;;;;;;;3.12;100.00;96578.06;5105980;28;19937;-68
2024/02/13 03:37:49;;;;;;;;;;;;;;;3.11;100.00;96586.81;5106456;28;20121;-67
2024/02/13 03:40:18;;;;;;;;;;;;;;;3.10;100.00;96590.38;5105842;28;19953;-69
2024/02/13 03:42:45;;;;;;;;;;;;;;;3.09;100.00;96588.75;5105904;28;19939;-68
2024/02/13 03:45:10;;;;;;;;;;;;;;;3.09;100.00;96592.16;5105299;28;19925;-72
2024/02/13 03:47:45;;;;;;;;;;;;;;;3.09;100.00;96592.16;5104969;28;19938;-72
2024/02/13 03:50:11;;;;;;;;;;;;;;;3.07;100.00;96595.88;5105629;28;19936;-72
2024/02/13 03:52:37;;;;;;;;;;;;;;;3.03;100.00;96596.22;5105723;28;19932;-73
2024/02/13 03:55:05;;;;;;;;;;;;;;;2.98;100.00;96601.13;5105627;28;19932;-73
2024/02/13 03:57:32;;;;;;;;;;;;;;;2.94;100.00;96592.06;5105366;28;19963;-73
2024/02/13 03:59:58;;;;;;;;;;;;;;;2.89;100.00;96596.09;5088201;28;19966;-69
2024/02/13 04:02:26;;;;;;;;;;;;;;;2.88;100.00;96600.50;5105502;28;19947;-69
2024/02/13 04:04:52;;;;;;;;;;;;;;;2.88;100.00;96600.50;5106274;28;19938;-69
2024/02/13 04:07:17;;;;;;;;;;;;;;;2.90;100.00;96597.72;5105974;28;19927;-70
2024/02/13 04:09:43;;;;;;;;;;;;;;;2.91;100.00;96597.56;5105314;28;19951;-69
2024/02/13 04:12:10;;;;;;;;;;;;;;;2.90;100.00;96602.88;5105304;28;19942;-70
2024/02/13 04:14:38;;;;;;;;;;;;;;;2.89;100.00;96603.88;5105322;28;20224;-70
2024/02/13 04:17:04;;;;;;;;;;;;;;;2.85;100.00;96606.78;5105417;28;19936;-68
2024/02/13 04:19:30;;;;;;;;;;;;;;;2.85;100.00;96605.97;5105073;28;19935;-72
2024/02/13 04:21:56;;;;;;;;;;;;;;;2.81;100.00;96604.69;5105141;28;19932;-76
2024/02/13 04:24:22;;;;;;;;;;;;;;;2.78;100.00;96611.00;5104978;28;19939;-77
2024/02/13 04:26:47;;;;;;;;;;;;;;;2.73;100.00;96608.13;5105860;28;19935;-77
2024/02/13 04:29:13;;;;;;;;;;;;;;;2.69;100.00;96614.59;5105057;28;19934;-77
2024/02/13 04:31:39;;;;;;;;;;;;;;;2.65;100.00;96610.72;5105122;28;19934;-77
2024/02/13 04:34:05;;;;;;;;;;;;;;;2.60;100.00;96612.97;5104797;28;19941;-77
2024/02/13 04:36:32;;;;;;;;;;;;;;;2.56;100.00;96611.69;5105662;28;19960;-73
2024/02/13 04:38:58;;;;;;;;;;;;;;;2.52;100.00;96620.75;5104768;28;19941;-69
2024/02/13 04:41:24;;;;;;;;;;;;;;;2.48;100.00;96624.63;5086559;28;19969;-70
2024/02/13 04:43:54;;;;;;;;;;;;;;;2.46;100.00;96627.41;5104708;28;19932;-72
2024/02/13 04:46:22;;;;;;;;;;;;;;;2.45;100.00;96630.94;5104673;28;19950;-72
2024/02/13 04:48:48;;;;;;;;;;;;;;;2.47;100.00;96631.59;5105072;28;20126;-72
2024/02/13 04:51:13;;;;;;;;;;;;;;;2.50;100.00;96638.22;5104549;28;19935;-72
2024/02/13 04:53:39;;;;;;;;;;;;;;;2.51;100.00;96642.44;5104613;28;19935;-78
2024/02/13 04:56:05;;;;;;;;;;;;;;;2.53;100.00;96638.72;5103845;28;19928;-66
2024/02/13 04:58:32;;;;;;;;;;;;;;;2.54;100.00;96642.94;5104333;28;19987;-79
2024/02/13 05:01:09;;;;;;;;;;;;;;;2.55;100.00;96643.75;5104396;28;19980;-79
2024/02/13 05:08:58;;;;;;;;;;;;;;;2.57;100.00;96652.94;5104555;28;19960;-78
2024/02/13 05:11:27;;;;;;;;;;;;;;;2.57;100.00;96650.38;5103007;28;20235;-79
2024/02/13 05:13:53;;;;;;;;;;;;;;;2.58;100.00;96652.00;5086440;28;19959;-66
2024/02/13 05:16:18;;;;;;;;;;;;;;;2.61;100.00;96649.06;5104814;28;19954;-75
2024/02/13 05:18:47;;;;;;;;;;;;;;;2.62;100.00;96644.69;5086856;28;20014;-74
2024/02/13 05:21:20;;;;;;;;;;;;;;;2.63;100.00;96644.53;5104067;28;19958;-76
2024/02/13 05:23:49;;;;;;;;;;;;;;;2.63;100.00;96633.38;5105048;28;19938;-75
2024/02/13 05:26:17;;;;;;;;;;;;;;;2.66;100.00;96635.63;5104132;28;19942;-75
2024/02/13 05:28:43;;;;;;;;;;;;;;;2.69;100.00;96642.25;5104289;28;20117;-75
2024/02/13 05:31:09;;;;;;;;;;;;;;;2.70;100.00;96636.13;5104554;28;19941;-74
2024/02/13 05:33:36;;;;;;;;;;;;;;;2.70;100.00;96638.72;5104561;28;20197;-68
2024/02/13 05:36:03;;;;;;;;;;;;;;;2.71;100.00;96641.16;5104688;28;19933;-74
2024/02/13 05:38:49;;;;;;;;;;;;;;;2.73;100.00;96640.97;5104023;28;19937;-74
2024/02/13 05:41:15;;;;;;;;;;;;;;;2.75;100.00;96646.78;5102971;28;19958;-74
2024/02/13 05:43:41;;;;;;;;;;;;;;;2.76;100.00;96644.03;5104019;28;19985;-74
2024/02/13 05:46:07;;;;;;;;;;;;;;;2.77;100.00;96647.44;5104019;28;19931;-74
2024/02/13 05:48:35;;;;;;;;;;;;;;;2.79;100.00;96643.72;5103942;28;20283;-74
2024/02/13 05:51:04;;;;;;;;;;;;;;;2.79;100.00;96648.91;5104012;28;19935;-68
2024/02/13 05:53:30;;;;;;;;;;;;;;;2.82;100.00;96658.13;5104702;28;19934;-68
2024/02/13 05:55:56;;;;;;;;;;;;;;;2.80;100.00;96647.13;5103910;28;19927;-68
2024/02/13 05:58:27;;;;;;;;;;;;;;;2.80;100.00;96644.53;5103793;28;19962;-67
2024/02/13 06:00:57;;;;;;;;;;;;;;;2.78;100.00;96652.44;5104627;28;19956;-67
2024/02/13 06:03:23;;;;;;;;;;;;;;;2.79;100.00;96654.09;5103854;28;19935;-68
2024/02/13 06:05:50;;;;;;;;;;;;;;;2.80;100.00;96655.69;5103842;28;19933;-68
2024/02/13 06:08:16;;;;;;;;;;;;;;;2.81;100.00;96661.66;5088183;28;20243;-76
2024/02/13 06:10:43;;;;;;;;;;;;;;;2.82;100.00;96658.94;5107733;28;19937;-70
2024/02/13 06:13:09;;;;;;;;;;;;;;;2.83;100.00;96665.75;5107574;28;20247;-70
2024/02/13 06:15:36;;;;;;;;;;;;;;;2.81;100.00;96659.09;5108288;28;19935;-70
2024/02/13 06:18:04;;;;;;;;;;;;;;;2.79;100.00;96663.63;5107537;28;19941;-70
2024/02/13 06:20:30;;;;;;;;;;;;;;;2.76;100.00;96664.75;5107398;28;19951;-69
2024/02/13 06:22:55;;;;;;;;;;;;;;;2.73;100.00;96669.44;5107421;28;20001;-69
2024/02/13 06:25:21;;;;;;;;;;;;;;;2.68;100.00;96656.19;5107398;28;19937;-69
2024/02/13 06:27:48;;;;;;;;;;;;;;;2.67;100.00;96665.75;5108223;28;20213;-74
2024/02/13 06:30:14;;;;;;;;;;;;;;;2.69;100.00;96668.97;5107238;28;19934;-76
2024/02/13 06:32:47;;;;;;;;;;;;;;;2.72;100.00;96675.59;5107299;28;19938;-76
2024/02/13 06:35:13;;;;;;;;;;;;;;;2.73;100.00;96678.03;5107201;28;19928;-76
2024/02/13 06:37:59;;;;;;;;;;;;;;;2.75;100.00;96681.28;5107751;28;19937;-76
2024/02/13 06:40:25;;;;;;;;;;;;;;;2.63;100.00;96692.94;5107810;28;19955;-76
2024/02/13 06:42:51;;;;;;;;;;;;;;;2.57;100.00;96694.38;5107747;28;20067;-76
2024/02/13 06:45:17;;;;;;;;;;;;;;;2.53;100.00;96700.84;5106908;28;19929;-74
2024/02/13 06:47:43;;;;;;;;;;;;;;;2.55;100.00;96701.50;5107426;28;19935;-75
2024/02/13 06:50:11;;;;;;;;;;;;;;;2.58;100.00;96710.72;5107116;28;20006;-75
2024/02/13 06:52:38;;;;;;;;;;;;;;;2.58;100.00;96706.38;5107367;28;19935;-75
2024/02/13 06:55:04;;;;;;;;;;;;;;;2.59;100.00;96720.91;5106750;28;19933;-74
2024/02/13 06:57:34;;;;;;;;;;;;;;;2.61;100.00;96715.59;5106494;28;19969;-75
2024/02/13 07:00:03;;;;;;;;;;;;;;;2.64;100.00;96715.25;5106912;28;19937;-74
2024/02/13 07:02:31;;;;;;;;;;;;;;;2.71;100.00;96718.81;5107387;28;19945;-74
2024/02/13 07:04:56;;;;;;;;;;;;;;;2.79;100.00;96724.00;5106624;28;20136;-74
2024/02/13 07:07:24;;;;;;;;;;;;;;;2.91;100.00;96721.88;5106475;28;19940;-72
2024/02/13 07:09:52;;;;;;;;;;;;;;;3.11;100.00;96724.13;5106380;28;19954;-72
2024/02/13 07:12:18;;;;;;;;;;;;;;;3.36;100.00;96728.31;5106385;28;19933;-72
2024/02/13 07:14:44;;;;;;;;;;;;;;;3.72;100.00;96720.13;5106386;28;19935;-72
2024/02/13 07:17:10;;;;;;;;;;;;;;;4.18;100.00;96722.00;5106326;28;20094;-71
2024/02/13 07:19:36;;;;;;;;;;;;;;;4.67;100.00;96711.31;5106031;28;20229;-71
2024/02/13 07:22:02;;;;;;;;;;;;;;;5.16;100.00;96704.91;5107095;28;19957;-67
2024/02/13 07:24:29;;;;;;;;;;;;;;;5.60;100.00;96691.91;5106238;28;20287;-67
2024/02/13 07:26:54;;;;;;;;;;;;;;;5.99;100.00;96693.44;5105756;28;19939;-67
2024/02/13 07:29:20;;;;;;;;;;;;;;;6.33;100.00;96686.00;5106234;28;19974;-67
2024/02/13 07:31:46;;;;;;;;;;;;;;;6.65;100.00;96688.09;5106213;28;19957;-67
2024/02/13 07:34:12;;;;;;;;;;;;;;;6.88;100.00;96680.06;5106160;28;20223;-68
2024/02/13 07:36:38;;;;;;;;;;;;;;;7.06;100.00;96671.00;5106121;28;19938;-67
2024/02/13 07:39:05;;;;;;;;;;;;;;;7.25;100.00;96662.50;5106792;28;20110;-66
2024/02/13 07:41:34;;;;;;;;;;;;;;;7.22;100.00;96654.22;5105901;28;19940;-73
2024/02/13 07:44:00;;;;;;;;;;;;;;;7.08;100.00;96635.09;5106758;28;20182;-75
2024/02/13 07:46:26;;;;;;;;;;;;;;;6.65;100.00;96676.88;5105868;28;19933;-75
2024/02/13 07:48:52;;;;;;;;;;;;;;;6.25;100.00;96692.91;5105855;28;19969;-75
2024/02/13 07:51:18;;;;;;;;;;;;;;;5.98;100.00;96704.81;5106612;28;19938;-75
2024/02/13 07:53:44;;;;;;;;;;;;;;;5.96;100.00;96711.22;5106241;28;19932;-74
2024/02/13 07:56:12;;;;;;;;;;;;;;;5.87;100.00;96720.88;5105934;28;20004;-75
2024/02/13 07:58:41;;;;;;;;;;;;;;;6.05;100.00;96713.53;5105549;28;20257;-69
2024/02/13 08:01:09;;;;;;;;;;;;;;;6.32;100.00;96702.59;5105580;28;19957;-74
2024/02/13 08:03:37;;;;;;;;;;;;;;;6.63;100.00;96700.50;5105522;28;19939;-73
2024/02/13 08:06:03;;;;;;;;;;;;;;;6.80;100.00;96688.03;5105487;28;19938;-74
2024/02/13 08:08:30;;;;;;;;;;;;;;;6.88;100.00;96692.31;5105360;28;19949;-73
2024/02/13 08:10:57;;;;;;;;;;;;;;;6.90;100.00;96679.91;5105458;28;20123;-74
2024/02/13 08:13:23;;;;;;;;;;;;;;;6.75;100.00;96694.81;5105258;28;19954;-73
2024/02/13 08:15:49;;;;;;;;;;;;;;;6.83;100.00;96710.31;5105789;28;19957;-73
2024/02/13 08:18:17;;;;;;;;;;;;;;;7.07;100.00;96694.25;5105248;28;20212;-77
2024/02/13 08:20:43;;;;;;;;;;;;;;;7.42;100.00;96696.91;5105148;28;19957;-72
2024/02/13 08:23:09;;;;;;;;;;;;;;;7.74;100.00;96671.19;5105727;28;19941;-72
2024/02/13 08:25:35;;;;;;;;;;;;;;;7.89;100.00;96677.06;5105070;28;19931;-71
2024/02/13 08:28:01;;;;;;;;;;;;;;;7.64;100.00;96689.00;5105008;28;19944;-71
2024/02/13 08:30:28;;;;;;;;;;;;;;;7.80;100.00;96706.16;5104891;28;19932;-72
2024/02/13 08:32:54;;;;;;;;;;;;;;;8.09;100.00;96673.75;5105017;28;20230;-71
2024/02/13 08:35:20;;;;;;;;;;;;;;;8.32;100.00;96681.22;5104906;28;19940;-75
2024/02/13 08:37:50;;;;;;;;;;;;;;;8.52;100.00;96661.22;5105440;28;20092;-67
2024/02/13 08:40:19;;;;;;;;;;;;;;;8.61;100.00;96674.06;5105648;28;20214;-69
2024/02/13 08:42:45;;;;;;;;;;;;;;;8.64;100.00;96674.47;5104825;28;19940;-69
2024/02/13 08:45:11;;;;;;;;;;;;;;;8.71;100.00;96638.69;5104788;28;20003;-69
2024/02/13 08:47:48;;;;;;;;;;;;;;;8.81;100.00;96698.41;5104242;28;19949;-69
2024/02/13 08:50:14;;;;;;;;;;;;;;;8.89;100.00;96656.38;5104610;28;19971;-68
2024/02/13 08:52:40;;;;;;;;;;;;;;;8.92;100.00;96656.00;5104649;28;19933;-67
2024/02/13 08:55:07;;;;;;;;;;;;;;;9.03;100.00;96646.72;5104630;28;19938;-67
2024/02/13 08:57:33;;;;;;;;;;;;;;;9.28;100.00;96667.00;5104329;28;19966;-66
2024/02/13 08:59:59;;;;;;;;;;;;;;;9.45;100.00;96662.13;5105356;28;20027;-67
2024/02/13 09:02:24;;;;;;;;;;;;;;;9.67;100.00;96650.41;5105229;28;19985;-67
2024/02/13 09:04:50;;;;;;;;;;;;;;;9.61;100.00;96619.81;5104462;28;19943;-67
2024/02/13 09:07:16;;;;;;;;;;;;;;;9.61;100.00;96639.97;5104426;28;20015;-68
2024/02/13 09:09:42;;;;;;;;;;;;;;;9.75;100.00;96633.66;5104411;28;19981;-66
2024/02/13 09:12:08;;;;;;;;;;;;;;;9.83;100.00;96604.63;5104372;28;19936;-73
2024/02/13 09:14:34;;;;;;;;;;;;;;;9.88;100.00;96614.47;5104370;28;19936;-71
2024/02/13 09:17:00;;;;;;;;;;;;;;;9.80;100.00;96599.00;5104494;28;20222;-73
2024/02/13 09:19:26;;;;;;;;;;;;;;;9.84;100.00;96619.31;5104454;28;19939;-74
2024/02/13 09:21:52;;;;;;;;;;;;;;;9.80;100.00;96636.44;5104305;28;20099;-73
2024/02/13 09:24:18;;;;;;;;;;;;;;;9.84;100.00;96616.69;5104250;28;19934;-74
2024/02/13 09:26:44;;;;;;;;;;;;;;;9.95;100.00;96673.69;5104259;28;19935;-73
2024/02/13 09:29:10;;;;;;;;;;;;;;;10.07;100.00;96636.34;5104277;28;20106;-74
2024/02/13 09:31:36;;;;;;;;;;;;;;;10.14;100.00;96645.78;5104719;28;20111;-74
2024/02/13 09:34:02;;;;;;;;;;;;;;;10.27;100.00;96633.63;5104212;28;19957;-72
2024/02/13 09:36:27;;;;;;;;;;;;;;;10.31;100.00;96627.78;5105002;28;20137;-72
2024/02/13 09:38:53;;;;;;;;;;;;;;;10.33;97.27;96607.38;5104182;28;20157;-72
2024/02/13 09:41:20;;;;;;;;;;;;;;;10.33;100.00;96620.50;5104591;28;20200;-72
2024/02/13 09:43:46;;;;;;;;;;;;;;;10.39;100.00;96642.41;5107127;28;20210;-72
2024/02/13 09:46:16;;;;;;;;;;;;;;;10.38;100.00;96621.69;5108244;28;19933;-72
2024/02/13 09:48:45;;;;;;;;;;;;;;;10.54;100.00;96635.06;5108710;28;19931;-72
2024/02/13 09:51:15;;;;;;;;;;;;;;;10.75;99.25;96602.44;5108112;28;19931;-79
2024/02/13 09:53:43;;;;;;;;;;;;;;;10.99;100.00;96623.63;5090087;28;19966;-69
2024/02/13 09:56:13;;;;;;;;;;;;;;;11.20;90.80;96556.78;5108013;28;20122;-67
2024/02/13 09:58:44;;;;;;;;;;;;;;;11.16;91.74;96569.53;5108287;28;20119;-68
2024/02/13 10:01:09;;;;;;;;;;;;;;;11.07;93.23;96568.22;5108094;28;20242;-68
2024/02/13 10:03:39;;;;;;;;;;;;;;;11.11;96.24;96600.09;5107880;28;19975;-68
2024/02/13 10:06:06;;;;;;;;;;;;;;;11.29;96.08;96597.47;5107782;28;20241;-68
2024/02/13 10:08:34;;;;;;;;;;;;;;;11.37;99.00;96617.38;5107734;28;20272;-69
2024/02/13 10:11:01;;;;;;;;;;;;;;;11.52;94.18;96594.19;5107779;28;19938;-73
2024/02/13 10:13:32;;;;;;;;;;;;;;;11.64;90.90;96564.56;5108248;28;20119;-73
2024/02/13 10:15:58;;;;;;;;;;;;;;;11.53;90.64;96568.75;5107698;28;19947;-74
2024/02/13 10:18:24;;;;;;;;;;;;;;;11.40;87.51;96561.00;5107635;28;19947;-72
2024/02/13 10:20:50;;;;;;;;;;;;;;;11.43;91.93;96586.84;5107502;28;19941;-74
2024/02/13 10:23:18;;;;;;;;;;;;;;;11.31;95.94;96615.63;5107540;28;20041;-75
2024/02/13 10:25:44;;;;;;;;;;;;;;;11.15;90.90;96588.16;5108017;28;20216;-74
2024/02/13 10:28:13;;;;;;;;;;;;;;;10.84;92.10;96594.28;5107704;28;20120;-74
2024/02/13 10:30:39;;;;;;;;;;;;;;;10.49;93.99;96607.88;5089318;28;19964;-74
2024/02/13 10:33:09;;;;;;;;;;;;;;;10.34;100.00;96721.69;5107266;28;19934;-75
2024/02/13 10:35:35;;;;;;;;;;;;;;;10.53;100.00;96725.22;5107181;28;19935;-74
2024/02/13 10:38:07;;;;;;;;;;;;;;;10.75;98.35;96636.53;5108036;28;19934;-74
2024/02/13 10:40:35;;;;;;;;;;;;;;;10.80;100.00;96659.50;5107990;28;19939;-72
2024/02/13 10:43:03;;;;;;;;;;;;;;;10.72;98.08;96636.94;5106963;28;19980;-73
2024/02/13 10:45:30;;;;;;;;;;;;;;;10.47;91.81;96608.09;5107108;28;19948;-69
2024/02/13 10:48:06;;;;;;;;;;;;;;;10.15;87.25;96587.09;5107606;28;19940;-79
2024/02/13 10:50:33;;;;;;;;;;;;;;;10.06;82.94;96551.69;5108077;28;19942;-79
2024/02/13 10:53:01;;;;;;;;;;;;;;;9.97;89.69;96589.63;5106923;28;20247;-79
2024/02/13 10:55:27;;;;;;;;;;;;;;;10.23;84.86;96559.03;5106123;28;19944;-78
2024/02/13 10:57:53;;;;;;;;;;;;;;;10.70;86.68;96578.66;5106938;28;19974;-79
2024/02/13 11:00:19;;;;;;;;;;;;;;;10.76;82.61;96548.94;5106833;28;19959;-80
2024/02/13 11:02:49;;;;;;;;;;;;;;;10.97;76.55;96515.44;5106680;28;19951;-69
2024/02/13 11:05:15;;;;;;;;;;;;;;;11.16;82.62;96650.13;5107319;28;19938;-74
2024/02/13 11:07:41;;;;;;;;;;;;;;;11.58;80.67;96671.31;5107087;28;19954;-75
2024/02/13 11:10:08;;;;;;;;;;;;;;;11.89;76.42;96680.91;5107410;28;20220;-75
2024/02/13 11:12:35;;;;;;;;;;;;;;;12.10;77.57;96744.56;5105474;28;19945;-75
2024/02/13 11:15:30;;;;;;;;;;;;;;;12.10;77.43;96758.50;5106536;28;19947;-76
2024/02/13 11:18:08;;;;;;;;;;;;;;;11.99;73.97;96756.63;5107265;28;19966;-75
2024/02/13 11:20:37;;;;;;;;;;;;;;;11.73;74.27;96755.03;5107336;28;19940;-75
2024/02/13 11:23:27;;;;;;;;;;;;;;;11.30;78.90;96766.31;5106952;28;19938;-70
2024/02/13 11:25:59;;;;;;;;;;;;;;;10.94;78.19;96773.00;5106594;28;19939;-67
2024/02/13 11:28:38;;;;;;;;;;;;;;;10.67;82.14;96778.44;5106610;28;19943;-67
2024/02/13 11:31:14;;;;;;;;;;;;;;;10.50;82.58;96787.81;5106299;28;20096;-67
2024/02/13 11:33:59;;;;;;;;;;;;;;;10.23;82.81;96781.84;5106196;28;19943;-67
2024/02/13 11:36:25;;;;;;;;;;;;;;;10.11;81.69;96771.97;5106433;28;19933;-67
2024/02/13 11:38:56;;;;;;;;;;;;;;;10.10;82.25;96775.63;5106952;28;20239;-67
2024/02/13 11:41:22;;;;;;;;;;;;;;;10.26;79.83;96770.91;5106923;28;19954;-67
2024/02/13 11:43:48;;;;;;;;;;;;;;;10.49;81.60;96765.19;5105935;28;20272;-67
2024/02/13 11:46:14;;;;;;;;;;;;;;;10.57;77.79;96757.91;5105714;28;19932;-67
2024/02/13 11:48:44;;;;;;;;;;;;;;;10.38;79.17;96758.81;5088842;28;20225;-67
2024/02/13 11:51:10;;;;;;;;;;;;;;;10.21;83.93;96770.75;5105845;28;19957;-66
2024/02/13 11:53:37;;;;;;;;;;;;;;;9.98;81.52;96771.22;5105768;28;20239;-67
2024/02/13 11:56:04;;;;;;;;;;;;;;;10.01;82.39;96763.72;5105773;28;19936;-67
2024/02/13 11:58:31;;;;;;;;;;;;;;;10.20;78.88;96753.41;5105618;28;19986;-73
2024/02/13 12:01:02;;;;;;;;;;;;;;;10.54;77.09;96754.88;5106765;28;19946;-79
2024/02/13 12:03:29;;;;;;;;;;;;;;;10.82;77.92;96749.28;5105552;28;19944;-83
2024/02/13 12:05:56;;;;;;;;;;;;;;;10.89;75.81;96744.78;5105262;28;20135;-84
2024/02/13 12:08:25;;;;;;;;;;;;;;;10.72;75.24;96741.06;5105442;28;20212;-78
2024/02/13 12:10:57;;;;;;;;;;;;;;;10.49;78.92;96742.41;5106194;28;19960;-78
2024/02/13 12:13:24;;;;;;;;;;;;;;;10.24;82.66;96744.91;5105372;28;20247;-79
2024/02/13 12:15:50;;;;;;;;;;;;;;;10.19;78.11;96728.22;5105893;28;19934;-77
2024/02/13 12:18:19;;;;;;;;;;;;;;;10.11;82.32;96735.28;5105324;28;19945;-73
2024/02/13 12:20:46;;;;;;;;;;;;;;;10.20;80.87;96733.22;5105256;28;19940;-70
2024/02/13 12:23:13;;;;;;;;;;;;;;;10.52;84.67;96741.16;5105150;28;19959;-70
2024/02/13 12:25:41;;;;;;;;;;;;;;;10.87;75.88;96717.16;5105627;28;19940;-69
2024/02/13 12:28:07;;;;;;;;;;;;;;;11.13;73.98;96710.94;5105883;28;20209;-70
2024/02/13 12:30:36;;;;;;;;;;;;;;;11.35;78.57;96729.72;5104352;28;19988;-70
2024/02/13 12:33:06;;;;;;;;;;;;;;;11.53;75.27;96728.97;5105017;28;20201;-70
2024/02/13 12:35:33;;;;;;;;;;;;;;;11.71;74.51;96713.19;5104071;28;19938;-67
2024/02/13 12:38:11;;;;;;;;;;;;;;;11.82;69.74;96709.03;5104960;28;19939;-74
2024/02/13 12:40:44;;;;;;;;;;;;;;;11.88;69.30;96710.00;5105707;28;20105;-73
2024/02/13 12:43:15;;;;;;;;;;;;;;;11.83;75.77;96717.75;5105453;28;19983;-73
2024/02/13 12:45:46;;;;;;;;;;;;;;;11.71;66.90;96701.88;5104656;28;19935;-74
2024/02/13 12:48:12;;;;;;;;;;;;;;;11.77;71.92;96699.19;5104589;28;20248;-73
2024/02/13 12:50:38;;;;;;;;;;;;;;;11.81;69.19;96698.75;5104607;28;19938;-73
2024/02/13 12:53:10;;;;;;;;;;;;;;;11.78;66.33;96703.44;5104585;28;20233;-67